TAM829 SCIE-EGYP
Flight info
| Callsign | TAM829 |
|---|---|
| Flight time | N/A |
| Altitude | 37000 |
| Route | PANEX3N PANEX UT105 NIA DCT BAR UW39 CRV DCT DAGOK DCT SALVU DCT 51S060W DCT MPA |
| Aircraft | B77W/H-SDE1E2E3FGHIJ2J3J4J5M1RWXY/LB1D1 |
Departure
| Time | N/A |
|---|---|
| Airport | Carriel Sur International Airport (SCIE) |
Arrival
| Time | 2026-04-15 16:54 |
|---|---|
| Airport | Mount Pleasant Airport / RAF Mount Pleasant (EGYP) |
| Time | Latitude | Longitude | Altitude | Speed | Heading |
|---|---|---|---|---|---|
| 2026-04-15 16:21 | -49.78116 | -61.88223 | 37014 ft | 546 kts | 139° |
| 2026-04-15 16:21 | -49.80829 | -61.84187 | 37004 ft | 546 kts | 139° |
| 2026-04-15 16:22 | -49.86312 | -61.76009 | 37000 ft | 547 kts | 139° |
| 2026-04-15 16:22 | -49.91805 | -61.67788 | 37006 ft | 548 kts | 139° |
| 2026-04-15 16:23 | -49.97262 | -61.59593 | 37003 ft | 548 kts | 139° |
| 2026-04-15 16:23 | -50.02722 | -61.51368 | 37006 ft | 549 kts | 138° |
| 2026-04-15 16:24 | -50.08214 | -61.43066 | 37006 ft | 550 kts | 138° |
| 2026-04-15 16:24 | -50.13684 | -61.34769 | 37007 ft | 551 kts | 138° |
| 2026-04-15 16:25 | -50.19185 | -61.26396 | 37009 ft | 552 kts | 138° |
| 2026-04-15 16:25 | -50.24688 | -61.17993 | 37012 ft | 553 kts | 137° |
| 2026-04-15 16:26 | -50.30176 | -61.09584 | 37006 ft | 554 kts | 137° |
| 2026-04-15 16:26 | -50.35676 | -61.01128 | 36994 ft | 555 kts | 137° |
| 2026-04-15 16:27 | -50.41158 | -60.92668 | 37000 ft | 555 kts | 137° |
| 2026-04-15 16:27 | -50.46663 | -60.84147 | 37007 ft | 556 kts | 137° |
| 2026-04-15 16:28 | -50.52135 | -60.75645 | 37007 ft | 556 kts | 137° |
| 2026-04-15 16:28 | -50.57639 | -60.67065 | 37006 ft | 557 kts | 137° |
| 2026-04-15 16:29 | -50.63121 | -60.58489 | 37005 ft | 557 kts | 137° |
| 2026-04-15 16:29 | -50.68624 | -60.49849 | 37004 ft | 558 kts | 137° |
| 2026-04-15 16:30 | -50.74131 | -60.41175 | 37001 ft | 558 kts | 137° |
| 2026-04-15 16:30 | -50.79607 | -60.32516 | 36995 ft | 550 kts | 137° |
| 2026-04-15 16:30 | -50.82287 | -60.28263 | 36798 ft | 540 kts | 137° |
| 2026-04-15 16:31 | -50.84925 | -60.24073 | 36233 ft | 536 kts | 136° |
| 2026-04-15 16:31 | -50.87526 | -60.19939 | 35417 ft | 540 kts | 136° |
| 2026-04-15 16:31 | -50.90191 | -60.15697 | 34463 ft | 546 kts | 136° |
| 2026-04-15 16:31 | -50.92885 | -60.11398 | 33497 ft | 551 kts | 136° |
| 2026-04-15 16:32 | -50.95592 | -60.07071 | 32558 ft | 553 kts | 136° |
| 2026-04-15 16:32 | -50.98304 | -60.02695 | 31685 ft | 554 kts | 134° |
| 2026-04-15 16:32 | -51.00826 | -59.98140 | 30814 ft | 555 kts | 128° |
| 2026-04-15 16:32 | -51.03067 | -59.93171 | 30186 ft | 549 kts | 123° |
| 2026-04-15 16:33 | -51.05170 | -59.88153 | 29651 ft | 542 kts | 122° |
| 2026-04-15 16:33 | -51.07241 | -59.83181 | 29103 ft | 534 kts | 122° |
| 2026-04-15 16:33 | -51.09294 | -59.78264 | 28473 ft | 530 kts | 122° |
| 2026-04-15 16:33 | -51.11336 | -59.73397 | 27851 ft | 526 kts | 122° |
| 2026-04-15 16:34 | -51.13349 | -59.68620 | 27248 ft | 521 kts | 122° |
| 2026-04-15 16:34 | -51.15364 | -59.63848 | 26680 ft | 517 kts | 122° |
| 2026-04-15 16:34 | -51.17372 | -59.59095 | 26094 ft | 513 kts | 122° |
| 2026-04-15 16:34 | -51.19358 | -59.54384 | 25545 ft | 509 kts | 122° |
| 2026-04-15 16:35 | -51.21308 | -59.49754 | 25031 ft | 504 kts | 122° |
| 2026-04-15 16:35 | -51.23251 | -59.45128 | 24546 ft | 500 kts | 122° |
| 2026-04-15 16:35 | -51.25187 | -59.40508 | 24026 ft | 497 kts | 122° |
| 2026-04-15 16:35 | -51.27103 | -59.35925 | 23513 ft | 493 kts | 122° |
| 2026-04-15 16:36 | -51.28964 | -59.31467 | 22968 ft | 488 kts | 122° |
| 2026-04-15 16:36 | -51.30849 | -59.26944 | 22429 ft | 484 kts | 122° |
| 2026-04-15 16:36 | -51.32707 | -59.22477 | 21865 ft | 480 kts | 122° |
| 2026-04-15 16:36 | -51.34550 | -59.18039 | 21321 ft | 477 kts | 122° |
| 2026-04-15 16:37 | -51.36380 | -59.13623 | 20805 ft | 473 kts | 122° |
| 2026-04-15 16:37 | -51.38172 | -59.09293 | 20308 ft | 470 kts | 121° |
| 2026-04-15 16:37 | -51.39969 | -59.04945 | 19781 ft | 467 kts | 121° |
| 2026-04-15 16:37 | -51.41758 | -59.00605 | 19275 ft | 464 kts | 121° |
| 2026-04-15 16:38 | -51.43532 | -58.96296 | 18788 ft | 461 kts | 121° |
| 2026-04-15 16:38 | -51.45297 | -58.92003 | 18328 ft | 459 kts | 121° |
| 2026-04-15 16:38 | -51.47046 | -58.87742 | 17780 ft | 456 kts | 121° |
| 2026-04-15 16:38 | -51.48781 | -58.83507 | 17276 ft | 453 kts | 121° |
| 2026-04-15 16:39 | -51.50507 | -58.79289 | 16798 ft | 449 kts | 121° |
| 2026-04-15 16:39 | -51.52213 | -58.75114 | 16342 ft | 445 kts | 121° |
| 2026-04-15 16:39 | -51.53882 | -58.71020 | 15861 ft | 443 kts | 121° |
| 2026-04-15 16:39 | -51.55563 | -58.66893 | 15636 ft | 432 kts | 121° |
| 2026-04-15 16:40 | -51.57187 | -58.62901 | 15574 ft | 420 kts | 121° |
| 2026-04-15 16:40 | -51.58764 | -58.59017 | 15483 ft | 408 kts | 121° |
| 2026-04-15 16:40 | -51.60292 | -58.55247 | 15397 ft | 397 kts | 120° |
| 2026-04-15 16:40 | -51.61766 | -58.51607 | 15330 ft | 387 kts | 120° |
| 2026-04-15 16:41 | -51.63219 | -58.48012 | 15250 ft | 377 kts | 120° |
| 2026-04-15 16:41 | -51.64631 | -58.44510 | 15165 ft | 368 kts | 120° |
| 2026-04-15 16:41 | -51.66009 | -58.41090 | 15009 ft | 360 kts | 120° |
| 2026-04-15 16:41 | -51.67371 | -58.37707 | 14819 ft | 356 kts | 120° |
| 2026-04-15 16:42 | -51.68712 | -58.34366 | 14561 ft | 354 kts | 120° |
| 2026-04-15 16:42 | -51.70028 | -58.31083 | 14307 ft | 353 kts | 120° |
| 2026-04-15 16:42 | -51.71364 | -58.27747 | 14014 ft | 353 kts | 120° |
| 2026-04-15 16:42 | -51.72691 | -58.24430 | 13790 ft | 350 kts | 120° |
| 2026-04-15 16:43 | -51.74011 | -58.21130 | 13504 ft | 347 kts | 120° |
| 2026-04-15 16:43 | -51.75318 | -58.17858 | 13223 ft | 346 kts | 120° |
| 2026-04-15 16:43 | -51.76606 | -58.14629 | 12908 ft | 346 kts | 120° |
| 2026-04-15 16:43 | -51.77912 | -58.11379 | 12626 ft | 341 kts | 123° |
| 2026-04-15 16:44 | -51.79355 | -58.08354 | 12175 ft | 340 kts | 121° |
| 2026-04-15 16:44 | -51.80638 | -58.05129 | 11842 ft | 338 kts | 121° |
| 2026-04-15 16:44 | -51.82228 | -58.02407 | 11459 ft | 339 kts | 148° |
| 2026-04-15 16:44 | -51.84374 | -58.01045 | 10787 ft | 324 kts | 176° |
| 2026-04-15 16:45 | -51.86501 | -58.01184 | 10568 ft | 292 kts | 199° |
| 2026-04-15 16:45 | -51.88288 | -58.02430 | 10079 ft | 273 kts | 219° |
| 2026-04-15 16:45 | -51.89669 | -58.04420 | 9413 ft | 261 kts | 236° |
| 2026-04-15 16:45 | -51.90624 | -58.06862 | 8738 ft | 251 kts | 252° |
| 2026-04-15 16:46 | -51.90901 | -58.09552 | 8069 ft | 240 kts | 279° |
| 2026-04-15 16:46 | -51.90407 | -58.12078 | 7446 ft | 233 kts | 296° |
| 2026-04-15 16:46 | -51.89492 | -58.14211 | 6814 ft | 231 kts | 315° |
| 2026-04-15 16:46 | -51.88020 | -58.15219 | 6162 ft | 244 kts | 351° |
| 2026-04-15 16:47 | -51.86356 | -58.14487 | 6060 ft | 260 kts | 25° |
| 2026-04-15 16:47 | -51.85161 | -58.12191 | 5473 ft | 274 kts | 51° |
| 2026-04-15 16:47 | -51.84087 | -58.09807 | 4801 ft | 250 kts | 25° |
| 2026-04-15 16:47 | -51.82624 | -58.08859 | 4604 ft | 212 kts | 356° |
| 2026-04-15 16:48 | -51.81156 | -58.09044 | 4378 ft | 214 kts | 338° |
| 2026-04-15 16:48 | -51.79864 | -58.10136 | 4238 ft | 205 kts | 319° |
| 2026-04-15 16:48 | -51.78994 | -58.11934 | 4106 ft | 205 kts | 299° |
| 2026-04-15 16:48 | -51.78674 | -58.14147 | 4038 ft | 204 kts | 279° |
| 2026-04-15 16:49 | -51.78936 | -58.16361 | 3965 ft | 204 kts | 261° |
| 2026-04-15 16:49 | -51.79631 | -58.18349 | 3843 ft | 205 kts | 243° |
| 2026-04-15 16:49 | -51.80751 | -58.19787 | 3719 ft | 203 kts | 228° |
| 2026-04-15 16:49 | -51.81895 | -58.20936 | 3560 ft | 183 kts | 229° |
| 2026-04-15 16:50 | -51.82943 | -58.21981 | 3276 ft | 171 kts | 231° |
| 2026-04-15 16:50 | -51.83918 | -58.22976 | 2821 ft | 166 kts | 232° |
| 2026-04-15 16:50 | -51.84901 | -58.24012 | 2227 ft | 165 kts | 234° |
| 2026-04-15 16:50 | -51.85410 | -58.25380 | 2040 ft | 128 kts | 288° |
| 2026-04-15 16:51 | -51.85185 | -58.26684 | 2043 ft | 124 kts | 299° |
| 2026-04-15 16:51 | -51.84977 | -58.28053 | 2016 ft | 127 kts | 298° |
| 2026-04-15 16:51 | -51.84771 | -58.29428 | 2015 ft | 125 kts | 297° |
| 2026-04-15 16:51 | -51.84554 | -58.30805 | 1995 ft | 126 kts | 297° |
| 2026-04-15 16:52 | -51.84336 | -58.32167 | 2011 ft | 124 kts | 297° |
| 2026-04-15 16:52 | -51.84121 | -58.33486 | 1988 ft | 120 kts | 297° |
| 2026-04-15 16:52 | -51.83912 | -58.34781 | 1990 ft | 122 kts | 299° |
| 2026-04-15 16:52 | -51.83701 | -58.36140 | 1950 ft | 123 kts | 297° |
| 2026-04-15 16:53 | -51.83532 | -58.37439 | 1771 ft | 116 kts | 296° |
| 2026-04-15 16:53 | -51.83336 | -58.38731 | 1532 ft | 121 kts | 300° |
| 2026-04-15 16:53 | -51.83065 | -58.40090 | 986 ft | 133 kts | 298° |
| 2026-04-15 16:53 | -51.82813 | -58.41565 | 730 ft | 137 kts | 295° |
| 2026-04-15 16:54 | -51.82578 | -58.42997 | 397 ft | 128 kts | 302° |
| 2026-04-15 16:54 | -51.82322 | -58.44341 | 234 ft | 118 kts | 297° |
| 2026-04-15 16:54 | -51.82127 | -58.45435 | 225 ft | 80 kts | 283° |
| 2026-04-15 16:54 | -51.82025 | -58.46042 | 227 ft | 43 kts | 284° |
| 2026-04-15 16:55 | -51.82008 | -58.46270 | 232 ft | 13 kts | 262° |
| 2026-04-15 16:55 | -51.82046 | -58.46406 | 238 ft | 12 kts | 239° |
| 2026-04-15 16:55 | -51.82081 | -58.46509 | 239 ft | 10 kts | 241° |
| 2026-04-15 16:55 | -51.82093 | -58.46623 | 239 ft | 10 kts | 274° |
| 2026-04-15 16:56 | -51.82079 | -58.46737 | 237 ft | 11 kts | 284° |
| 2026-04-15 16:56 | -51.82072 | -58.46885 | 239 ft | 14 kts | 257° |
| 2026-04-15 16:56 | -51.82144 | -58.46975 | 239 ft | 14 kts | 190° |
| 2026-04-15 16:56 | -51.82194 | -58.46991 | 238 ft | 0 kts | 191° |
| 2026-04-15 17:03 | -51.82194 | -58.46990 | 238 ft | 0 kts | 191° |